Time;durP1;ratioP1;P1;durP2;ratioP2;P2;SDS_P1;SDS_P2;PMS_P1;PMS_P2;Temp;Humidity;BMP_temperature;BMP_pressure;BME280_temperature;BME280_humidity;BME280_pressure;Samples;Min_cycle;Max_cycle;Signal;HPM_P1;HPM_P2
2023/02/07 00:01:25;;;;;;;9.93;4.82;;;5.60;35.60;;;;;;6184407;23;20025;-79
2023/02/07 00:03:53;;;;;;;7.85;4.97;;;5.60;35.40;;;;;;6184659;23;20031;-79
2023/02/07 00:06:28;;;;;;;7.60;4.25;;;5.60;35.40;;;;;;6184273;23;20438;-79
2023/02/07 00:08:54;;;;;;;9.20;4.63;;;5.50;35.30;;;;;;6184362;23;20005;-79
2023/02/07 00:11:22;;;;;;;6.88;4.28;;;5.50;35.80;;;;;;6184337;23;20024;-78
2023/02/07 00:13:50;;;;;;;7.95;4.18;;;5.50;35.90;;;;;;6185102;23;20005;-78
2023/02/07 00:16:16;;;;;;;8.30;4.32;;;5.50;35.40;;;;;;6185436;23;20001;-79
2023/02/07 00:18:42;;;;;;;7.07;4.35;;;5.50;36.60;;;;;;6185995;23;20047;-78
2023/02/07 00:21:14;;;;;;;8.30;4.40;;;5.50;36.30;;;;;;6186253;23;19998;-78
2023/02/07 00:23:41;;;;;;;7.80;3.97;;;5.50;36.20;;;;;;6184937;23;20367;-78
2023/02/07 00:26:07;;;;;;;8.77;4.13;;;5.50;35.90;;;;;;6184334;23;20027;-79
2023/02/07 00:28:34;;;;;;;7.28;3.75;;;5.50;36.40;;;;;;6184897;23;19998;-79
2023/02/07 00:31:08;;;;;;;7.85;4.35;;;5.50;35.80;;;;;;6184613;23;19997;-78
2023/02/07 00:33:35;;;;;;;8.23;4.07;;;5.50;37.80;;;;;;6184805;23;20423;-78
2023/02/07 00:36:04;;;;;;;6.10;3.67;;;5.50;36.90;;;;;;6159024;23;20017;-78
2023/02/07 00:38:30;;;;;;;8.38;3.70;;;5.50;36.30;;;;;;6185905;23;20016;-78
2023/02/07 00:40:56;;;;;;;6.93;3.58;;;5.40;36.40;;;;;;6185990;23;20072;-78
2023/02/07 00:43:23;;;;;;;6.47;3.40;;;5.50;37.20;;;;;;6186132;23;20091;-77
2023/02/07 00:45:48;;;;;;;7.75;3.60;;;5.50;37.20;;;;;;6186101;23;20016;-79
2023/02/07 00:48:14;;;;;;;5.07;3.10;;;5.50;37.60;;;;;;6185963;23;20001;-79
2023/02/07 00:50:41;;;;;;;6.65;3.92;;;5.50;37.30;;;;;;6159647;23;20012;-79
2023/02/07 00:53:06;;;;;;;5.43;3.40;;;5.40;37.60;;;;;;6186055;23;20001;-79
2023/02/07 00:55:32;;;;;;;5.72;3.05;;;5.40;37.80;;;;;;6185848;23;20024;-79
2023/02/07 00:57:58;;;;;;;6.60;3.40;;;5.40;37.60;;;;;;6186015;23;20013;-79
2023/02/07 01:00:24;;;;;;;6.30;3.67;;;5.40;37.70;;;;;;6186245;23;19997;-79
2023/02/07 01:02:49;;;;;;;5.25;2.83;;;5.40;38.10;;;;;;6185825;23;20260;-80
2023/02/07 01:05:15;;;;;;;4.22;2.63;;;5.40;38.10;;;;;;6185799;23;20001;-78
2023/02/07 01:07:41;;;;;;;5.03;2.88;;;5.30;38.20;;;;;;6159260;23;20005;-77
2023/02/07 01:10:09;;;;;;;7.28;3.47;;;5.30;38.30;;;;;;6185898;23;20001;-78
2023/02/07 01:12:35;;;;;;;5.95;3.22;;;5.30;38.60;;;;;;6185958;23;20080;-78
2023/02/07 01:15:01;;;;;;;6.07;3.70;;;5.30;38.30;;;;;;6185971;23;20001;-79
2023/02/07 01:17:27;;;;;;;6.55;3.50;;;5.30;38.30;;;;;;6185910;23;20328;-78
2023/02/07 01:19:57;;;;;;;6.05;3.22;;;5.30;38.40;;;;;;6185562;23;20007;-78
2023/02/07 01:22:24;;;;;;;5.30;3.28;;;5.30;38.40;;;;;;6186124;23;20075;-79
2023/02/07 01:24:52;;;;;;;5.50;3.03;;;5.30;38.40;;;;;;6186357;23;20012;-79
2023/02/07 01:27:17;;;;;;;6.80;3.17;;;5.20;38.40;;;;;;6185923;23;20011;-77
2023/02/07 01:29:43;;;;;;;5.32;3.30;;;5.20;38.60;;;;;;6185463;23;20029;-79
2023/02/07 01:32:09;;;;;;;6.03;3.08;;;5.20;38.90;;;;;;6185693;23;20009;-78
2023/02/07 01:34:35;;;;;;;5.97;3.20;;;5.20;38.70;;;;;;6185561;23;20001;-78
2023/02/07 01:37:00;;;;;;;6.18;3.00;;;5.20;38.90;;;;;;6185693;23;20012;-76
2023/02/07 01:39:26;;;;;;;6.47;3.30;;;5.30;39.00;;;;;;6185653;23;20013;-78
2023/02/07 01:41:52;;;;;;;6.60;3.67;;;5.30;39.20;;;;;;6185606;23;20005;-77
2023/02/07 01:44:20;;;;;;;6.55;3.40;;;5.30;39.30;;;;;;6159090;23;20005;-76
2023/02/07 01:46:47;;;;;;;6.18;3.42;;;5.30;39.00;;;;;;6185227;23;20024;-78
2023/02/07 01:49:16;;;;;;;6.53;3.42;;;5.30;39.20;;;;;;6185388;23;20024;-77
2023/02/07 01:51:48;;;;;;;5.63;3.20;;;5.20;39.20;;;;;;6185006;23;19998;-78
2023/02/07 01:54:15;;;;;;;6.57;3.63;;;5.30;39.30;;;;;;6185467;23;20004;-78
2023/02/07 01:56:45;;;;;;;6.10;3.72;;;5.30;39.40;;;;;;6186067;23;20055;-76
2023/02/07 01:59:12;;;;;;;7.88;3.65;;;5.30;39.40;;;;;;6185688;23;20009;-79
2023/02/07 02:01:38;;;;;;;6.80;3.60;;;5.30;39.60;;;;;;6185283;23;20007;-77
2023/02/07 02:04:03;;;;;;;6.05;3.88;;;5.20;39.60;;;;;;6185437;23;20029;-78
2023/02/07 02:06:32;;;;;;;8.00;3.78;;;5.20;39.70;;;;;;6185192;23;20008;-79
2023/02/07 02:08:59;;;;;;;8.75;4.25;;;5.20;39.90;;;;;;6185374;23;20011;-79
2023/02/07 02:11:25;;;;;;;7.07;3.83;;;5.20;40.00;;;;;;6185485;23;20334;-76
2023/02/07 02:14:26;;;;;;;7.47;3.88;;;5.10;40.00;;;;;;6185738;23;20032;-78
2023/02/07 02:17:09;;;;;;;6.80;3.80;;;5.10;39.70;;;;;;6156961;23;20005;-78
2023/02/07 02:20:09;;;;;;;6.13;3.10;;;5.10;39.60;;;;;;6185105;23;20005;-79
2023/02/07 02:22:49;;;;;;;8.35;3.78;;;5.10;39.80;;;;;;6185296;23;20005;-79
2023/02/07 02:25:58;;;;;;;6.65;3.63;;;5.00;39.80;;;;;;6185463;23;20005;-78
2023/02/07 02:28:41;;;;;;;7.43;4.03;;;5.00;39.90;;;;;;6185361;23;20009;-78
2023/02/07 02:31:15;;;;;;;5.32;3.20;;;5.00;40.00;;;;;;6185009;23;20002;-78
2023/02/07 02:34:02;;;;;;;6.63;3.50;;;5.00;40.20;;;;;;6184907;23;19997;-80
2023/02/07 02:36:49;;;;;;;7.70;3.78;;;4.90;40.10;;;;;;6185420;23;20012;-77
2023/02/07 02:39:52;;;;;;;7.57;3.42;;;4.90;40.10;;;;;;6184850;23;20462;-77
2023/02/07 02:42:41;;;;;;;5.72;3.38;;;4.90;40.10;;;;;;6157597;23;20016;-78
2023/02/07 02:45:25;;;;;;;8.80;4.40;;;4.90;41.10;;;;;;6173020;23;20001;-78
2023/02/07 02:47:51;;;;;;;6.13;3.20;;;5.00;40.40;;;;;;6184659;23;20020;-78
2023/02/07 02:50:28;;;;;;;5.90;3.45;;;5.00;41.40;;;;;;6184735;23;20343;-77
2023/02/07 02:52:54;;;;;;;8.13;4.32;;;4.90;41.00;;;;;;6184898;23;20020;-79
2023/02/07 02:55:30;;;;;;;6.47;3.50;;;4.90;40.90;;;;;;6185037;23;20423;-79
2023/02/07 02:58:17;;;;;;;7.28;4.05;;;4.80;40.30;;;;;;6184478;23;20112;-78
2023/02/07 03:01:28;;;;;;;6.03;3.35;;;4.80;40.40;;;;;;6185094;23;20005;-78
2023/02/07 03:04:12;;;;;;;5.15;3.20;;;4.90;40.40;;;;;;6172507;23;20009;-79
2023/02/07 03:06:49;;;;;;;;;;;4.80;40.40;;;;;;6185025;23;20089;-78
2023/02/07 03:09:31;;;;;;;5.43;3.58;;;4.80;40.70;;;;;;6184717;23;19928;-78
2023/02/07 03:12:04;;;;;;;6.30;3.33;;;4.80;41.80;;;;;;6184812;23;19997;-78
2023/02/07 03:14:36;;;;;;;5.43;3.15;;;4.90;41.60;;;;;;6158461;23;20383;-79
2023/02/07 03:17:23;;;;;;;7.55;3.65;;;4.90;41.60;;;;;;6185783;23;20025;-77
2023/02/07 03:20:29;;;;;;;6.18;3.60;;;4.80;41.50;;;;;;6185733;23;20009;-79
2023/02/07 03:22:59;;;;;;;7.80;2.88;;;4.80;40.60;;;;;;6070182;23;20014;-77
2023/02/07 03:25:28;;;;;;;6.07;3.13;;;4.80;41.90;;;;;;6169240;23;20011;-77
2023/02/07 03:27:55;;;;;;;7.43;3.10;;;4.70;41.70;;;;;;6184863;23;20032;-77
2023/02/07 03:30:23;;;;;;;6.78;3.60;;;4.60;41.70;;;;;;6184978;23;20424;-78
2023/02/07 03:32:53;;;;;;;7.45;3.10;;;4.70;41.80;;;;;;6184449;23;20005;-79
2023/02/07 03:35:36;;;;;;;5.35;2.97;;;4.60;41.80;;;;;;6184755;23;20016;-78
2023/02/07 03:38:03;;;;;;;7.22;3.03;;;4.60;41.90;;;;;;6184390;23;20009;-78
2023/02/07 03:40:39;;;;;;;6.05;3.50;;;4.60;41.80;;;;;;6184699;23;19997;-79
2023/02/07 03:43:07;;;;;;;5.75;3.05;;;4.60;41.10;;;;;;6184507;23;20001;-78
2023/02/07 03:45:33;;;;;;;6.93;3.30;;;4.60;42.10;;;;;;6184188;23;19997;-77
2023/02/07 03:47:59;;;;;;;7.70;3.35;;;4.60;42.00;;;;;;6184513;23;20360;-78
2023/02/07 03:50:25;;;;;;;5.68;3.08;;;4.60;42.10;;;;;;6184879;23;20451;-78
2023/02/07 03:52:50;;;;;;;8.30;3.55;;;4.60;42.20;;;;;;6184490;23;20071;-78
2023/02/07 03:55:16;;;;;;;6.32;2.75;;;4.50;42.20;;;;;;6184270;23;20001;-77
2023/02/07 03:57:42;;;;;;;5.85;3.08;;;4.50;42.10;;;;;;6184120;23;20332;-77
2023/02/07 04:00:09;;;;;;;6.80;2.97;;;4.50;42.20;;;;;;6184303;23;20071;-78
2023/02/07 04:02:34;;;;;;;9.73;3.38;;;4.50;41.90;;;;;;6158017;23;20064;-78
2023/02/07 04:05:00;;;;;;;8.48;2.83;;;4.40;42.20;;;;;;6184651;23;20036;-78
2023/02/07 04:07:26;;;;;;;7.10;3.47;;;4.40;42.10;;;;;;6184322;23;20003;-78
2023/02/07 04:09:51;;;;;;;6.57;2.92;;;4.40;42.20;;;;;;6184802;23;20005;-79
2023/02/07 04:12:17;;;;;;;5.07;2.88;;;4.40;42.10;;;;;;6186488;23;20035;-78
2023/02/07 04:14:43;;;;;;;4.30;2.50;;;4.40;42.70;;;;;;6186550;23;20005;-78
2023/02/07 04:17:08;;;;;;;5.75;3.50;;;4.30;41.90;;;;;;6186448;23;19997;-78
2023/02/07 04:19:34;;;;;;;6.32;3.17;;;4.30;42.00;;;;;;6190077;23;20009;-78
2023/02/07 04:22:00;;;;;;;4.88;2.80;;;4.30;42.30;;;;;;6160169;23;20039;-77
2023/02/07 04:24:25;;;;;;;5.72;3.40;;;4.40;42.30;;;;;;6186072;23;20386;-78
2023/02/07 04:26:51;;;;;;;5.60;3.20;;;4.40;42.20;;;;;;6160419;23;20380;-77
2023/02/07 04:29:17;;;;;;;7.18;3.63;;;4.40;42.40;;;;;;6186808;23;20001;-79
2023/02/07 04:31:43;;;;;;;6.50;2.83;;;4.40;42.40;;;;;;6185998;23;20055;-77
2023/02/07 04:34:09;;;;;;;8.77;3.53;;;4.40;42.20;;;;;;6186027;23;20001;-78
2023/02/07 04:36:35;;;;;;;7.15;3.80;;;4.40;42.30;;;;;;6186772;23;20088;-78
2023/02/07 04:39:01;;;;;;;6.63;3.08;;;4.30;42.10;;;;;;6185979;23;20040;-77
2023/02/07 04:41:27;;;;;;;5.82;2.80;;;4.30;42.00;;;;;;6186131;23;20002;-78
2023/02/07 04:43:53;;;;;;;6.05;3.28;;;4.20;42.40;;;;;;6186107;23;20454;-77
2023/02/07 04:46:19;;;;;;;6.00;2.60;;;4.20;42.30;;;;;;6185562;23;20009;-78
2023/02/07 04:48:44;;;;;;;7.93;3.05;;;4.20;42.40;;;;;;6185882;23;20029;-79
2023/02/07 04:51:11;;;;;;;5.45;2.80;;;4.20;42.40;;;;;;6186248;23;20005;-77
2023/02/07 04:53:36;;;;;;;5.60;2.85;;;4.20;42.40;;;;;;6185930;23;20403;-78
2023/02/07 04:56:02;;;;;;;5.78;3.30;;;4.20;42.20;;;;;;6185401;23;20001;-78
2023/02/07 04:58:28;;;;;;;6.82;2.85;;;4.10;42.00;;;;;;6185569;23;20009;-78
2023/02/07 05:00:54;;;;;;;6.55;3.50;;;4.10;42.10;;;;;;6185887;23;19997;-79
2023/02/07 05:03:20;;;;;;;5.30;2.97;;;4.20;42.40;;;;;;6186020;23;20076;-78
2023/02/07 05:05:45;;;;;;;8.15;2.50;;;4.20;42.40;;;;;;6185618;23;20025;-78
2023/02/07 05:08:12;;;;;;;5.72;3.00;;;4.20;42.30;;;;;;6186019;23;20008;-78
2023/02/07 05:10:38;;;;;;;6.90;3.10;;;4.10;42.50;;;;;;6186052;23;20450;-78
2023/02/07 05:13:05;;;;;;;5.10;2.83;;;4.10;42.40;;;;;;6185794;23;20008;-78
2023/02/07 05:15:31;;;;;;;6.47;3.08;;;4.20;42.70;;;;;;6185716;23;20277;-79
2023/02/07 05:17:57;;;;;;;9.45;3.25;;;4.10;42.40;;;;;;6185547;23;20013;-78
2023/02/07 05:20:24;;;;;;;5.97;3.13;;;4.20;42.60;;;;;;6185632;23;20063;-77
2023/02/07 05:22:50;;;;;;;7.97;2.97;;;4.20;42.80;;;;;;6185758;23;20004;-78
2023/02/07 05:25:16;;;;;;;7.15;3.60;;;4.10;42.60;;;;;;6185662;23;20071;-79
2023/02/07 05:27:42;;;;;;;6.45;3.33;;;4.10;42.50;;;;;;6185492;23;20005;-78
2023/02/07 05:30:09;;;;;;;6.50;3.13;;;4.00;42.60;;;;;;6185569;23;20493;-78
2023/02/07 05:35:19;;;;;;;5.93;3.40;;;4.00;41.90;;;;;;6185681;23;20040;-77
2023/02/07 05:37:45;;;;;;;7.82;2.80;;;4.00;42.70;;;;;;6185319;23;20013;-78
2023/02/07 05:40:14;;;;;;;5.75;3.35;;;4.00;43.30;;;;;;6185552;23;19997;-79
2023/02/07 05:42:40;;;;;;;6.47;3.50;;;4.00;41.90;;;;;;6185300;23;20012;-78
2023/02/07 05:45:07;;;;;;;5.72;3.40;;;4.00;42.50;;;;;;6185490;23;20000;-79
2023/02/07 05:47:33;;;;;;;7.60;3.50;;;4.00;42.70;;;;;;6185379;23;20063;-79
2023/02/07 05:49:59;;;;;;;8.45;3.55;;;4.00;42.60;;;;;;6185337;23;20309;-78
2023/02/07 05:52:24;;;;;;;9.63;3.97;;;4.00;43.00;;;;;;6185485;23;20021;-79
2023/02/07 05:54:50;;;;;;;6.18;3.38;;;4.00;42.50;;;;;;6185413;23;20024;-78
2023/02/07 05:57:16;;;;;;;7.90;4.68;;;4.00;42.70;;;;;;6185282;23;19997;-78
2023/02/07 05:59:42;;;;;;;7.68;3.80;;;4.00;42.80;;;;;;6185446;23;20009;-78
2023/02/07 06:02:08;;;;;;;5.90;3.22;;;4.00;43.10;;;;;;6185782;23;20005;-79
2023/02/07 06:04:33;;;;;;;10.02;5.78;;;4.00;42.60;;;;;;6158945;23;20008;-77
2023/02/07 06:06:59;;;;;;;10.52;3.72;;;4.10;43.00;;;;;;6159248;23;20009;-79
2023/02/07 06:09:25;;;;;;;7.18;3.75;;;4.10;43.20;;;;;;6185639;23;20001;-79
2023/02/07 06:11:50;;;;;;;8.68;4.00;;;4.20;43.00;;;;;;6185459;23;20331;-78
2023/02/07 06:14:16;;;;;;;6.57;3.53;;;4.20;43.30;;;;;;6185208;23;20065;-77
2023/02/07 06:16:42;;;;;;;8.27;3.72;;;4.20;42.90;;;;;;6185075;23;20080;-79
2023/02/07 06:19:10;;;;;;;9.10;4.15;;;4.20;42.80;;;;;;6185184;23;20009;-78
2023/02/07 06:21:35;;;;;;;10.68;4.07;;;4.30;43.00;;;;;;6185456;23;20005;-78
2023/02/07 06:24:01;;;;;;;8.52;3.65;;;4.30;42.80;;;;;;6184929;23;20391;-79
2023/02/07 06:26:27;;;;;;;8.20;3.80;;;4.30;42.90;;;;;;6184048;23;20055;-80
2023/02/07 06:28:53;;;;;;;5.57;3.00;;;4.40;43.10;;;;;;6185023;23;20080;-78
2023/02/07 06:31:18;;;;;;;9.45;3.80;;;4.30;42.80;;;;;;6186865;23;19997;-78
2023/02/07 06:33:44;;;;;;;12.32;3.72;;;4.30;42.90;;;;;;6187906;23;20020;-79
2023/02/07 06:36:10;;;;;;;7.85;3.58;;;4.30;43.00;;;;;;6185445;23;20052;-77
2023/02/07 06:38:35;;;;;;;13.48;3.15;;;4.30;42.80;;;;;;6184645;23;20013;-78
2023/02/07 06:41:01;;;;;;;7.15;3.55;;;4.20;42.40;;;;;;6184815;23;20005;-78
2023/02/07 06:43:27;;;;;;;7.22;3.53;;;4.30;42.70;;;;;;6184377;23;20009;-78
2023/02/07 06:45:53;;;;;;;8.82;3.65;;;4.30;42.60;;;;;;6184646;23;20005;-79
2023/02/07 06:48:18;;;;;;;7.72;3.00;;;4.40;42.80;;;;;;6184729;23;20005;-79
2023/02/07 06:50:44;;;;;;;5.82;3.35;;;4.40;42.40;;;;;;6184570;23;20322;-78
2023/02/07 06:53:10;;;;;;;9.85;3.55;;;4.30;42.30;;;;;;6184252;23;20001;-79
2023/02/07 06:55:38;;;;;;;9.23;4.50;;;4.30;42.10;;;;;;6158210;23;20009;-78
2023/02/07 06:58:05;;;;;;;6.72;2.85;;;4.30;42.60;;;;;;6184764;23;20020;-78
2023/02/07 07:00:31;;;;;;;9.57;3.80;;;4.30;42.50;;;;;;6184658;23;20005;-80
2023/02/07 07:02:56;;;;;;;10.95;3.60;;;4.40;42.40;;;;;;6184222;23;20303;-79
2023/02/07 07:05:22;;;;;;;12.82;3.10;;;4.50;42.10;;;;;;6184893;23;20008;-80
2023/02/07 07:07:48;;;;;;;7.75;3.80;;;4.60;41.80;;;;;;6184965;23;20053;-78
2023/02/07 07:10:14;;;;;;;7.32;3.05;;;4.70;42.10;;;;;;6185320;23;20024;-79
2023/02/07 07:12:39;;;;;;;10.30;3.90;;;4.80;41.70;;;;;;6184619;23;20009;-79
2023/02/07 07:15:06;;;;;;;8.73;2.95;;;4.90;41.60;;;;;;6184827;23;20027;-79
2023/02/07 07:17:31;;;;;;;7.97;3.30;;;5.00;41.30;;;;;;6184668;23;20364;-80
2023/02/07 07:19:58;;;;;;;11.50;3.20;;;5.10;41.40;;;;;;6184597;23;20067;-77
2023/02/07 07:22:24;;;;;;;10.13;3.10;;;5.10;41.20;;;;;;6184679;23;20001;-78
2023/02/07 07:24:50;;;;;;;9.35;3.50;;;5.30;41.50;;;;;;6184640;23;20009;-79
2023/02/07 07:27:16;;;;;;;9.85;3.20;;;5.30;41.10;;;;;;6184931;23;20005;-80
2023/02/07 07:29:42;;;;;;;9.00;2.97;;;5.40;41.40;;;;;;6185168;23;20047;-75
2023/02/07 07:32:10;;;;;;;6.78;3.20;;;5.50;41.10;;;;;;6185484;23;20051;-78
2023/02/07 07:34:36;;;;;;;7.28;2.90;;;5.70;41.20;;;;;;6186307;23;20080;-78
2023/02/07 07:37:02;;;;;;;11.32;3.17;;;5.70;40.70;;;;;;6185628;23;19997;-78
2023/02/07 07:39:28;;;;;;;7.82;3.00;;;5.90;40.50;;;;;;6184589;23;20383;-77
2023/02/07 07:41:54;;;;;;;8.63;3.67;;;5.90;40.20;;;;;;6184114;23;20470;-76
2023/02/07 07:44:20;;;;;;;8.60;3.00;;;5.90;40.20;;;;;;6184886;23;19997;-76
2023/02/07 07:46:46;;;;;;;6.80;2.72;;;6.00;39.90;;;;;;6185618;23;20017;-76
2023/02/07 07:49:11;;;;;;;5.43;3.20;;;6.10;39.80;;;;;;6159692;23;20012;-77
2023/02/07 07:51:37;;;;;;;6.28;2.88;;;6.10;39.50;;;;;;6186132;23;20439;-75
2023/02/07 07:54:03;;;;;;;9.40;3.85;;;6.10;39.70;;;;;;6186197;23;20009;-77
2023/02/07 07:56:28;;;;;;;7.72;3.00;;;6.10;39.70;;;;;;6186307;23;19997;-76
2023/02/07 07:58:55;;;;;;;9.40;3.35;;;6.20;39.60;;;;;;6185726;23;20013;-77
2023/02/07 08:01:21;;;;;;;7.93;3.50;;;6.10;39.50;;;;;;6185782;23;20372;-76
2023/02/07 08:03:47;;;;;;;22.02;4.18;;;6.10;39.50;;;;;;6159570;23;20031;-77
2023/02/07 08:06:13;;;;;;;12.95;3.70;;;6.20;39.70;;;;;;6185952;23;20044;-77
2023/02/07 08:08:39;;;;;;;9.63;3.13;;;6.10;39.60;;;;;;6186353;23;20005;-77
2023/02/07 08:11:07;;;;;;;12.07;3.53;;;6.10;39.60;;;;;;6185735;23;20009;-77
2023/02/07 08:13:33;;;;;;;7.20;3.53;;;6.10;39.90;;;;;;6186820;23;20001;-76
2023/02/07 08:15:59;;;;;;;9.95;3.33;;;6.00;39.50;;;;;;6185989;23;20004;-75
2023/02/07 08:18:25;;;;;;;8.40;3.83;;;5.90;39.50;;;;;;6185931;23;20091;-76
2023/02/07 08:20:50;;;;;;;6.07;2.80;;;5.90;39.70;;;;;;6185808;23;20033;-79
2023/02/07 08:23:16;;;;;;;10.98;3.90;;;5.90;40.00;;;;;;6185675;23;20008;-79
2023/02/07 08:25:43;;;;;;;11.52;3.85;;;5.80;39.40;;;;;;6185896;23;20459;-79
2023/02/07 08:28:09;;;;;;;9.15;3.90;;;5.90;39.80;;;;;;6186024;23;20462;-79
2023/02/07 08:30:34;;;;;;;9.57;3.97;;;5.80;39.50;;;;;;6185937;23;19997;-81
2023/02/07 08:33:00;;;;;;;10.60;4.78;;;5.80;39.50;;;;;;6186512;23;20011;-79
2023/02/07 08:35:26;;;;;;;7.93;3.55;;;5.80;39.30;;;;;;6185818;23;20013;-79
2023/02/07 08:37:54;;;;;;;9.50;3.75;;;5.90;39.60;;;;;;6184710;23;20442;-79
2023/02/07 08:40:21;;;;;;;8.73;3.58;;;5.90;39.60;;;;;;6185972;23;20008;-81
2023/02/07 08:42:46;;;;;;;7.88;3.65;;;6.00;39.70;;;;;;6186100;23;20440;-79
2023/02/07 08:45:14;;;;;;;5.85;3.30;;;6.00;39.60;;;;;;6185902;23;20068;-78
2023/02/07 08:47:40;;;;;;;7.80;3.40;;;6.20;39.60;;;;;;6185856;23;20387;-79
2023/02/07 08:50:06;;;;;;;6.68;3.47;;;6.20;39.30;;;;;;6185788;23;20028;-79
2023/02/07 08:52:32;;;;;;;7.47;3.63;;;6.30;39.40;;;;;;6185864;23;20009;-80
2023/02/07 08:54:58;;;;;;;7.22;3.50;;;6.30;39.10;;;;;;6185399;23;20116;-80
2023/02/07 08:57:24;;;;;;;9.57;3.47;;;6.30;38.60;;;;;;6185023;23;20116;-79
2023/02/07 08:59:51;;;;;;;9.27;3.78;;;6.30;38.50;;;;;;6186229;23;20008;-79
2023/02/07 09:02:17;;;;;;;8.13;3.90;;;6.30;38.50;;;;;;6185766;23;20335;-79
2023/02/07 09:04:43;;;;;;;8.50;3.35;;;6.40;38.50;;;;;;6185751;23;20011;-80
2023/02/07 09:07:09;;;;;;;7.43;3.60;;;6.40;38.70;;;;;;6185819;23;20427;-79
2023/02/07 09:09:35;;;;;;;6.95;3.75;;;6.50;38.60;;;;;;6185649;23;20443;-79
2023/02/07 09:12:01;;;;;;;9.43;3.50;;;6.60;39.00;;;;;;6185708;23;20008;-79
2023/02/07 09:14:26;;;;;;;6.15;3.20;;;6.60;37.90;;;;;;6186049;23;20081;-79
2023/02/07 09:16:52;;;;;;;9.60;3.53;;;6.70;37.60;;;;;;6185531;23;20219;-80
2023/02/07 09:19:18;;;;;;;7.35;3.35;;;6.80;37.80;;;;;;6185784;23;20013;-80
2023/02/07 09:21:44;;;;;;;10.32;3.40;;;6.80;37.90;;;;;;6185524;23;20323;-79
2023/02/07 09:24:10;;;;;;;7.22;3.72;;;6.90;36.80;;;;;;6185468;23;20005;-80
2023/02/07 09:26:37;;;;;;;10.10;4.20;;;6.90;36.70;;;;;;6185199;23;20008;-80
2023/02/07 09:29:04;;;;;;;10.60;3.65;;;7.00;36.90;;;;;;6185722;23;20039;-80
2023/02/07 09:31:30;;;;;;;8.13;4.10;;;7.10;36.30;;;;;;6185396;23;20039;-80
2023/02/07 09:33:56;;;;;;;9.45;4.13;;;7.20;36.30;;;;;;6185291;23;20001;-79
2023/02/07 09:36:27;;;;;;;12.13;5.35;;;7.30;36.60;;;;;;6185283;23;20089;-80
2023/02/07 09:38:53;;;;;;;13.20;4.55;;;7.40;38.60;;;;;;6185491;23;20336;-80
2023/02/07 09:41:43;;;;;;;11.23;4.70;;;7.50;35.70;;;;;;6185256;23;19997;-80
2023/02/07 09:44:16;;;;;;;11.35;4.55;;;7.60;37.60;;;;;;6184977;23;20001;-79
2023/02/07 09:47:06;;;;;;;8.68;3.85;;;7.60;35.70;;;;;;6184926;23;20016;-79
2023/02/07 09:49:46;;;;;;;11.20;3.90;;;7.70;36.00;;;;;;6169835;23;20047;-80
2023/02/07 09:52:34;;;;;;;5.80;3.42;;;7.70;37.60;;;;;;6185927;23;20001;-81
2023/02/07 09:55:01;;;;;;;8.73;3.60;;;7.80;35.50;;;;;;6185529;23;20013;-79
2023/02/07 09:57:44;;;;;;;6.97;3.92;;;7.80;35.60;;;;;;6185512;23;20431;-80
2023/02/07 10:00:25;;;;;;;7.05;3.33;;;7.90;35.40;;;;;;6185525;23;20064;-80
2023/02/07 10:02:59;;;;;;;7.13;3.97;;;7.90;35.30;;;;;;6184830;23;20138;-77
2023/02/07 10:05:42;;;;;;;8.02;3.70;;;8.00;35.30;;;;;;6186397;23;20008;-79
2023/02/07 10:08:14;;;;;;;7.13;3.90;;;8.10;35.30;;;;;;6186615;23;20343;-79
2023/02/07 10:10:56;;;;;;;8.55;4.30;;;8.20;35.20;;;;;;6186163;23;20055;-81
2023/02/07 10:13:49;;;;;;;7.85;3.60;;;8.30;36.70;;;;;;6184882;23;20023;-79
2023/02/07 10:16:26;;;;;;;7.07;3.80;;;8.40;36.50;;;;;;6184767;23;20028;-81
2023/02/07 10:19:20;;;;;;;6.57;3.20;;;8.40;36.40;;;;;;6184833;23;20009;-78
2023/02/07 10:21:59;;;;;;;10.27;3.92;;;8.50;36.30;;;;;;6185098;23;19997;-80
2023/02/07 10:24:43;;;;;;;6.28;3.38;;;8.50;36.40;;;;;;6184587;23;19997;-79
2023/02/07 10:27:09;;;;;;;;;;;8.60;35.10;;;;;;6158688;23;20008;-80
2023/02/07 10:29:45;;;;;;;6.53;3.30;;;8.70;34.30;;;;;;6184677;23;19908;-78
2023/02/07 10:32:16;;;;;;;10.40;3.47;;;8.70;34.60;;;;;;6184748;23;20009;-80
2023/02/07 10:34:48;;;;;;;7.82;4.05;;;8.80;34.70;;;;;;6184763;23;20001;-79
2023/02/07 10:37:25;;;;;;;10.48;4.18;;;8.90;34.80;;;;;;6184562;23;20028;-80
2023/02/07 10:40:14;;;;;;;7.72;3.75;;;9.00;34.60;;;;;;6185005;23;20067;-79
2023/02/07 10:42:42;;;;;;;9.95;3.72;;;9.00;35.10;;;;;;6184645;23;20005;-81
2023/02/07 10:45:14;;;;;;;7.55;3.47;;;9.10;34.80;;;;;;6184924;23;20038;-80
2023/02/07 10:47:40;;;;;;;11.60;3.42;;;9.20;34.40;;;;;;6184731;23;20013;-80
2023/02/07 10:50:11;;;;;;;7.55;3.17;;;9.30;34.50;;;;;;6185143;23;19997;-81
2023/02/07 10:52:43;;;;;;;6.07;3.20;;;9.40;34.60;;;;;;6184585;23;20092;-81
2023/02/07 10:55:10;;;;;;;5.47;3.30;;;9.40;33.80;;;;;;6185781;23;20030;-81
2023/02/07 10:57:36;;;;;;;9.43;3.28;;;9.40;33.40;;;;;;6185669;23;20076;-79
2023/02/07 11:00:25;;;;;;;6.22;3.67;;;9.50;33.40;;;;;;6185222;23;20011;-78
2023/02/07 11:03:05;;;;;;;6.85;3.60;;;9.60;32.90;;;;;;6185368;23;20044;-79
2023/02/07 11:05:36;;;;;;;6.00;3.33;;;9.70;32.90;;;;;;6185223;23;20009;-79
2023/02/07 11:08:11;;;;;;;5.97;3.60;;;9.80;33.80;;;;;;6184385;23;20001;-79
2023/02/07 11:10:40;;;;;;;8.57;3.33;;;9.90;32.60;;;;;;6157951;23;20037;-80
2023/02/07 11:13:43;;;;;;;6.75;3.63;;;9.90;33.20;;;;;;6157838;23;20005;-80
2023/02/07 11:16:09;;;;;;;7.28;3.63;;;10.00;32.40;;;;;;6185030;23;20080;-80
2023/02/07 11:18:53;;;;;;;10.85;3.60;;;10.10;32.60;;;;;;6184363;23;20037;-80
2023/02/07 11:21:39;;;;;;;;;;;10.10;31.40;;;;;;6184535;23;20001;-79
2023/02/07 11:24:41;;;;;;;6.03;3.28;;;10.10;31.00;;;;;;6157575;23;20299;-80
2023/02/07 11:27:09;;;;;;;6.38;3.50;;;10.20;32.20;;;;;;6093459;23;20085;-79
2023/02/07 11:29:58;;;;;;;6.88;3.75;;;10.20;31.90;;;;;;6222605;23;20012;-73
2023/02/07 11:32:26;;;;;;;8.27;3.25;;;10.30;32.20;;;;;;6244071;23;20287;-72
2023/02/07 11:35:00;;;;;;;5.80;3.55;;;10.30;31.80;;;;;;6242787;23;20314;-75
2023/02/07 11:37:25;;;;;;;;;;;10.30;31.50;;;;;;6244856;22;20009;-72
2023/02/07 11:40:11;;;;;;;6.95;3.20;;;10.30;31.50;;;;;;6245017;23;19903;-72
2023/02/07 11:42:37;;;;;;;6.65;3.55;;;10.30;30.90;;;;;;6243179;23;20079;-72
2023/02/07 11:45:04;;;;;;;6.00;3.53;;;10.50;31.40;;;;;;6244655;22;20316;-72
2023/02/07 11:47:31;;;;;;;7.78;4.15;;;10.60;31.70;;;;;;6244466;22;20008;-71
2023/02/07 11:50:03;;;;;;;6.45;3.80;;;10.60;30.90;;;;;;6244877;22;20386;-72
2023/02/07 11:52:31;;;;;;;6.80;3.75;;;10.60;30.80;;;;;;6245003;22;20003;-72
2023/02/07 11:55:01;;;;;;;9.95;4.18;;;10.60;31.10;;;;;;6244966;22;20078;-71
2023/02/07 11:57:31;;;;;;;8.82;4.05;;;10.70;31.10;;;;;;6244644;22;20000;-72
2023/02/07 12:00:05;;;;;;;7.97;3.53;;;10.80;30.20;;;;;;6244674;22;20005;-71
2023/02/07 12:02:32;;;;;;;9.48;3.90;;;10.90;31.10;;;;;;6244541;22;20003;-70
2023/02/07 12:05:22;;;;;;;9.95;3.78;;;11.00;30.50;;;;;;6244679;22;20022;-71
2023/02/07 12:07:56;;;;;;;7.07;3.80;;;11.10;30.60;;;;;;6244716;22;20000;-71
2023/02/07 12:10:27;;;;;;;6.78;3.50;;;11.20;30.90;;;;;;6244750;22;20460;-71
2023/02/07 12:13:03;;;;;;;8.48;3.58;;;11.20;30.40;;;;;;6244568;22;20003;-72
2023/02/07 12:15:45;;;;;;;8.00;3.60;;;11.10;29.70;;;;;;6244272;22;20007;-72
2023/02/07 12:18:20;;;;;;;5.47;3.28;;;11.10;30.00;;;;;;6244443;22;20008;-71
2023/02/07 12:21:11;;;;;;;4.93;2.90;;;11.00;29.40;;;;;;6244771;22;19996;-73
2023/02/07 12:23:44;;;;;;;6.85;3.28;;;11.00;29.70;;;;;;6244696;22;20482;-73
2023/02/07 12:26:43;;;;;;;6.80;3.28;;;11.10;29.60;;;;;;6244832;22;20369;-72
2023/02/07 12:29:45;;;;;;;6.35;3.47;;;11.20;29.70;;;;;;6244256;22;20008;-71
2023/02/07 12:32:34;;;;;;;6.45;3.30;;;11.30;29.60;;;;;;6246633;22;20083;-72
2023/02/07 12:35:23;;;;;;;10.45;4.18;;;11.50;30.00;;;;;;6246534;22;20005;-71
2023/02/07 12:38:12;;;;;;;6.88;3.25;;;11.60;29.80;;;;;;6246239;22;20012;-72
2023/02/07 12:40:54;;;;;;;6.53;3.60;;;11.70;29.70;;;;;;6246297;22;20322;-71
2023/02/07 12:43:37;;;;;;;8.32;4.22;;;11.80;29.40;;;;;;6246128;22;20016;-71
2023/02/07 12:46:53;;;;;;;8.50;4.22;;;11.80;29.30;;;;;;6246404;22;20036;-72
2023/02/07 12:49:31;;;;;;;6.03;3.50;;;11.90;29.00;;;;;;6153697;23;20024;-72
2023/02/07 12:52:26;;;;;;;11.93;5.07;;;11.90;29.00;;;;;;6153767;23;20009;-72
2023/02/07 12:55:28;;;;;;;8.77;4.45;;;12.00;29.80;;;;;;6199716;22;20004;-70
2023/02/07 12:58:24;;;;;;;6.78;4.22;;;12.10;29.20;;;;;;6246211;22;20030;-71
2023/02/07 13:01:24;;;;;;;6.78;3.95;;;12.10;28.90;;;;;;6246550;22;20028;-72
2023/02/07 13:04:09;;;;;;;7.47;4.15;;;12.20;29.00;;;;;;6211138;22;20023;-74
2023/02/07 13:06:38;;;;;;;12.20;4.47;;;12.20;28.90;;;;;;6246206;22;20000;-72
2023/02/07 13:09:30;;;;;;;6.53;4.15;;;12.30;28.70;;;;;;6246168;22;19997;-73
2023/02/07 13:12:23;;;;;;;6.80;3.45;;;12.20;28.30;;;;;;6246269;22;20004;-73
2023/02/07 13:14:49;;;;;;;6.25;4.03;;;12.10;28.30;;;;;;6245961;22;20033;-71
2023/02/07 13:17:34;;;;;;;6.65;3.40;;;11.90;28.10;;;;;;6246400;22;20000;-72
2023/02/07 13:20:24;;;;;;;6.32;3.55;;;11.80;27.50;;;;;;6246419;22;20062;-73